Westphalia, Iowa
Current Conditions -  °F | °C
As of 2:35 PM on Tuesday 21 Oct 2014 (Local Time) from KHNR Reporting Station
Clear Clear  
Wind Chill: 73°   Ceiling: Unl
Heat Index: 73°   Visibility: 9mi
Dew Point: 41°   Wind: 7mph
Humidity: 31%   Direction: NA
Pressure: 30.1"   Gusts: NA
Location:  41.72°N, 95.39°W
Report Text: KHNR 211935Z AUTO VRB06KT 9SM CLR 23/05 A3010 RMK AO2
Loading
Personal Weather Stations






























Interactive Weather Map
Tropical Storm Tracking
New forecast layout! Learn more

10-Day Weather Forecast

Advertisements
Track Severe Weather on mobile